Time;durP1;ratioP1;P1;durP2;ratioP2;P2;SDS_P1;SDS_P2;PMS_P1;PMS_P2;Temp;Humidity;BMP_temperature;BMP_pressure;BME280_temperature;BME280_humidity;BME280_pressure;Samples;Min_cycle;Max_cycle;Signal;HPM_P1;HPM_P2
2024/04/15 00:00:41;;;;;;;;;;;;;;;16.13;56.25;100992.09;5350001;26;1180;-49
2024/04/15 00:03:06;;;;;;;;;;;;;;;17.22;56.58;100979.56;5350837;26;1309;-47
2024/04/15 00:05:32;;;;;;;;;;;;;;;17.30;56.04;100976.28;5350962;26;1370;-46
2024/04/15 00:07:57;;;;;;;;;;;;;;;16.73;56.92;100981.66;5350621;26;1274;-50
2024/04/15 00:10:23;;;;;;;;;;;;;;;16.49;56.96;100983.19;5350804;26;1212;-49
2024/04/15 00:12:49;;;;;;;;;;;;;;;16.30;56.81;100980.91;5350846;26;1133;-51
2024/04/15 00:15:15;;;;;;;;;;;;;;;16.19;56.55;100981.97;5351047;26;1391;-46
2024/04/15 00:17:40;;;;;;;;;;;;;;;16.38;57.03;100982.31;5350176;26;1864;-45
2024/04/15 00:20:06;;;;;;;;;;;;;;;17.69;55.55;100985.94;5350395;26;1244;-49
2024/04/15 00:22:31;;;;;;;;;;;;;;;17.22;56.08;100990.56;5350758;26;1276;-45
2024/04/15 00:24:57;;;;;;;;;;;;;;;16.81;56.51;100984.97;5350368;26;1164;-49
2024/04/15 00:27:23;;;;;;;;;;;;;;;16.55;56.72;100982.13;5350423;26;1188;-46
2024/04/15 00:29:48;;;;;;;;;;;;;;;16.41;56.44;100976.28;5350653;26;1212;-48
2024/04/15 00:32:14;;;;;;;;;;;;;;;16.22;56.46;100984.97;5349393;26;1291;-48
2024/04/15 00:34:39;;;;;;;;;;;;;;;16.20;56.10;100972.63;5350391;26;1295;-46
2024/04/15 00:37:05;;;;;;;;;;;;;;;17.36;56.41;100980.72;5350071;26;1219;-47
2024/04/15 00:39:31;;;;;;;;;;;;;;;17.40;56.01;100987.31;5350181;26;1844;-47
2024/04/15 00:41:56;;;;;;;;;;;;;;;16.79;56.77;100978.91;5350179;26;1328;-49
2024/04/15 00:44:29;;;;;;;;;;;;;;;16.56;56.64;100978.28;5350203;26;1157;-47
2024/04/15 00:46:55;;;;;;;;;;;;;;;16.37;56.61;100981.50;5349664;26;1180;-51
2024/04/15 00:49:21;;;;;;;;;;;;;;;16.28;56.32;100982.28;5350384;26;1239;-47
2024/04/15 00:51:46;;;;;;;;;;;;;;;16.57;57.12;100980.75;5351094;26;1326;-51
2024/04/15 00:54:11;;;;;;;;;;;;;;;17.84;55.12;100985.91;5350207;26;1156;-51
2024/04/15 00:56:37;;;;;;;;;;;;;;;17.02;56.50;100975.69;5349690;26;1319;-48
2024/04/15 00:59:02;;;;;;;;;;;;;;;16.59;56.78;100975.84;5319839;26;1829;-48
2024/04/15 01:01:28;;;;;;;;;;;;;;;16.43;56.59;100965.88;5349886;26;1260;-46
2024/04/15 01:03:54;;;;;;;;;;;;;;;16.33;56.37;100972.16;5350399;26;1247;-50
2024/04/15 01:06:19;;;;;;;;;;;;;;;16.47;57.57;100967.00;5319860;26;1296;-51
2024/04/15 01:08:45;;;;;;;;;;;;;;;17.75;55.34;100966.41;5349303;26;1164;-49
2024/04/15 01:11:11;;;;;;;;;;;;;;;16.95;56.61;100966.09;5350911;26;1219;-49
2024/04/15 01:13:37;;;;;;;;;;;;;;;16.62;56.87;100968.16;5353408;26;1275;-49
2024/04/15 01:16:02;;;;;;;;;;;;;;;16.45;56.58;100949.16;5353199;26;1375;-52
2024/04/15 01:18:28;;;;;;;;;;;;;;;16.35;56.33;100949.94;5352900;26;1826;-50
2024/04/15 01:20:55;;;;;;;;;;;;;;;16.15;56.31;100953.41;5352440;26;1254;-46
2024/04/15 01:23:23;;;;;;;;;;;;;;;16.72;57.20;100965.44;5322835;26;1265;-49
2024/04/15 01:25:49;;;;;;;;;;;;;;;17.78;55.05;100954.84;5352792;26;1293;-50
2024/04/15 01:28:19;;;;;;;;;;;;;;;16.87;56.96;100956.41;5352862;26;1188;-49
2024/04/15 01:30:44;;;;;;;;;;;;;;;16.59;56.72;100950.28;5352650;26;1212;-49
2024/04/15 01:33:10;;;;;;;;;;;;;;;16.41;56.73;100949.69;5352961;26;1122;-49
2024/04/15 01:35:35;;;;;;;;;;;;;;;16.30;56.42;100958.97;5352906;26;1227;-49
2024/04/15 01:38:02;;;;;;;;;;;;;;;16.14;56.30;100949.00;5352787;26;1826;-46
2024/04/15 01:40:28;;;;;;;;;;;;;;;16.71;57.15;100959.13;5352423;26;1310;-50
2024/04/15 01:42:53;;;;;;;;;;;;;;;17.75;55.30;100941.66;5352819;26;1456;-48
2024/04/15 01:45:19;;;;;;;;;;;;;;;16.94;56.80;100951.50;5321946;26;1256;-45
2024/04/15 01:47:46;;;;;;;;;;;;;;;16.60;56.84;100947.25;5353040;26;1110;-46
2024/04/15 01:50:12;;;;;;;;;;;;;;;16.40;56.90;100947.22;5352351;26;1331;-48
2024/04/15 01:52:37;;;;;;;;;;;;;;;16.22;56.69;100940.25;5352808;26;1255;-47
2024/04/15 01:55:03;;;;;;;;;;;;;;;16.34;57.08;100943.63;5352406;26;1197;-48
2024/04/15 01:57:28;;;;;;;;;;;;;;;17.71;55.59;100942.47;5352258;26;1056;-47
2024/04/15 01:59:54;;;;;;;;;;;;;;;17.09;56.32;100937.78;5352447;26;1857;-45
2024/04/15 02:02:19;;;;;;;;;;;;;;;16.72;56.70;100949.78;5352376;26;1127;-49
2024/04/15 02:04:45;;;;;;;;;;;;;;;16.47;56.86;100946.97;5353050;26;1160;-46
2024/04/15 02:07:10;;;;;;;;;;;;;;;16.36;56.54;100941.41;5352760;26;1132;-49
2024/04/15 02:09:36;;;;;;;;;;;;;;;16.19;56.46;100935.31;5351646;26;1358;-47
2024/04/15 02:12:01;;;;;;;;;;;;;;;16.17;56.30;100945.72;5352670;26;1339;-48
2024/04/15 02:14:27;;;;;;;;;;;;;;;17.10;56.76;100938.63;5352361;26;1286;-49
2024/04/15 02:16:52;;;;;;;;;;;;;;;17.55;55.58;100947.97;5352477;26;1251;-50
2024/04/15 02:19:18;;;;;;;;;;;;;;;16.83;56.64;100945.16;5352213;26;1826;-49
2024/04/15 02:21:43;;;;;;;;;;;;;;;16.55;56.93;100941.78;5351908;26;1092;-48
2024/04/15 02:24:13;;;;;;;;;;;;;;;16.36;56.65;100944.16;5351410;26;1176;-49
2024/04/15 02:26:38;;;;;;;;;;;;;;;16.30;56.39;100937.03;5352220;26;1262;-47
2024/04/15 02:29:04;;;;;;;;;;;;;;;16.24;56.38;100943.56;5352015;26;1322;-49
2024/04/15 02:31:29;;;;;;;;;;;;;;;17.43;56.22;100945.53;5351866;26;1177;-50
2024/04/15 02:33:56;;;;;;;;;;;;;;;17.43;55.71;100937.28;5351947;26;1327;-47
2024/04/15 02:36:21;;;;;;;;;;;;;;;16.82;56.78;100945.44;5352424;26;1268;-51
2024/04/15 02:38:49;;;;;;;;;;;;;;;16.59;56.64;100944.78;5351529;26;1822;-49
2024/04/15 02:41:14;;;;;;;;;;;;;;;16.41;56.42;100943.34;5351927;26;1196;-49
2024/04/15 02:43:40;;;;;;;;;;;;;;;16.28;56.36;100941.94;5352092;26;1507;-50
2024/04/15 02:46:05;;;;;;;;;;;;;;;16.21;56.08;100946.84;5351625;26;1152;-47
2024/04/15 02:48:31;;;;;;;;;;;;;;;16.06;56.11;100942.09;5352217;26;1358;-48
2024/04/15 02:50:56;;;;;;;;;;;;;;;16.53;57.07;100945.88;5351951;26;1263;-49
2024/04/15 02:53:22;;;;;;;;;;;;;;;17.78;55.44;100934.75;5351837;26;1133;-50
2024/04/15 02:55:50;;;;;;;;;;;;;;;17.01;56.71;100934.78;5352158;26;1390;-49
2024/04/15 02:58:15;;;;;;;;;;;;;;;16.60;56.87;100935.47;5351488;26;1860;-51
2024/04/15 03:00:41;;;;;;;;;;;;;;;16.45;56.63;100940.91;5351800;26;1307;-46
2024/04/15 03:03:06;;;;;;;;;;;;;;;16.24;56.60;100930.69;5351477;26;1278;-47
2024/04/15 03:05:33;;;;;;;;;;;;;;;16.13;56.53;100937.22;5352258;26;1301;-50
2024/04/15 03:07:58;;;;;;;;;;;;;;;17.18;56.65;100940.84;5351399;26;1282;-47
2024/04/15 03:10:25;;;;;;;;;;;;;;;17.52;55.88;100937.53;5351691;26;1108;-48
2024/04/15 03:12:54;;;;;;;;;;;;;;;16.87;56.79;100939.94;5351447;26;1117;-49
2024/04/15 03:15:20;;;;;;;;;;;;;;;16.57;56.71;100941.50;5350543;26;1616;-51
2024/04/15 03:17:50;;;;;;;;;;;;;;;16.42;56.38;100940.38;5350585;26;1834;-51
2024/04/15 03:20:15;;;;;;;;;;;;;;;16.23;56.59;100941.94;5351268;26;1216;-52
2024/04/15 03:22:41;;;;;;;;;;;;;;;16.15;56.45;100939.69;5350446;26;1292;-51
2024/04/15 03:25:07;;;;;;;;;;;;;;;16.07;56.19;100939.09;5320539;26;1486;-52
2024/04/15 03:27:32;;;;;;;;;;;;;;;16.96;57.08;100938.34;5350916;26;1259;-49
2024/04/15 03:29:58;;;;;;;;;;;;;;;17.67;55.43;100930.38;5339302;26;2799;-48
2024/04/15 03:32:24;;;;;;;;;;;;;;;16.95;56.67;100935.88;5347432;26;1121;-50
2024/04/15 03:34:49;;;;;;;;;;;;;;;16.57;56.80;100938.75;5349228;26;1057;-49
2024/04/15 03:37:15;;;;;;;;;;;;;;;16.39;56.67;100938.13;5350803;26;1140;-52
2024/04/15 03:39:40;;;;;;;;;;;;;;;16.21;56.69;100939.44;5350905;26;1822;-49
2024/04/15 03:42:06;;;;;;;;;;;;;;;16.12;56.51;100945.69;5333135;26;1302;-50
2024/04/15 03:44:33;;;;;;;;;;;;;;;16.03;56.31;100945.38;5350489;26;1253;-51
2024/04/15 03:46:59;;;;;;;;;;;;;;;16.89;57.17;100948.78;5349088;26;1528;-47
2024/04/15 03:49:24;;;;;;;;;;;;;;;17.77;55.28;100947.69;5350088;26;1286;-51
2024/04/15 03:51:50;;;;;;;;;;;;;;;16.95;56.72;100958.66;5350902;26;1491;-49
2024/04/15 03:54:15;;;;;;;;;;;;;;;16.58;56.90;100956.91;5350455;26;1201;-47
2024/04/15 03:56:41;;;;;;;;;;;;;;;16.39;56.84;100956.53;5351310;26;1271;-51
2024/04/15 03:59:06;;;;;;;;;;;;;;;16.30;56.58;100958.97;5349697;26;1867;-49
2024/04/15 04:01:32;;;;;;;;;;;;;;;16.14;56.57;100962.72;5350963;26;2964;-53
2024/04/15 04:03:57;;;;;;;;;;;;;;;16.06;56.41;100953.91;5348784;26;1477;-54
2024/04/15 04:06:23;;;;;;;;;;;;;;;17.13;56.23;100949.06;5350763;26;1121;-51
2024/04/15 04:08:48;;;;;;;;;;;;;;;16.85;55.73;100966.84;5349865;26;1267;-52
2024/04/15 04:11:14;;;;;;;;;;;;;;;16.38;54.13;100966.69;5348734;26;1079;-53
2024/04/15 04:13:41;;;;;;;;;;;;;;;17.37;55.34;100960.34;5348571;26;1235;-46
2024/04/15 04:16:10;;;;;;;;;;;;;;;16.56;54.71;100970.03;5349241;26;1411;-52
2024/04/15 04:18:35;;;;;;;;;;;;;;;16.42;52.71;100958.72;5349514;26;1872;-48
2024/04/15 04:21:08;;;;;;;;;;;;;;;17.14;54.11;100958.97;5349905;26;1308;-51
2024/04/15 04:23:33;;;;;;;;;;;;;;;16.82;53.98;100948.19;5348321;26;1791;-48
2024/04/15 04:25:59;;;;;;;;;;;;;;;18.24;53.87;100953.09;5350052;26;1193;-50
2024/04/15 04:28:24;;;;;;;;;;;;;;;17.89;54.27;100955.66;5348114;26;1612;-54
2024/04/15 04:30:50;;;;;;;;;;;;;;;17.12;53.36;100954.84;5344067;26;2678;-52
2024/04/15 04:33:15;;;;;;;;;;;;;;;16.92;51.81;100956.47;5340428;26;1702;-48
2024/04/15 04:35:41;;;;;;;;;;;;;;;16.68;50.80;100956.09;5347896;26;1096;-51
2024/04/15 04:38:06;;;;;;;;;;;;;;;16.65;49.75;100960.22;5349780;26;1884;-49
2024/04/15 04:40:33;;;;;;;;;;;;;;;17.28;52.45;100968.31;5349461;26;1168;-51
2024/04/15 04:42:58;;;;;;;;;;;;;;;16.77;51.72;100960.81;5350454;26;1283;-51
2024/04/15 04:45:25;;;;;;;;;;;;;;;17.81;52.85;100975.47;5349185;26;1335;-51
2024/04/15 04:47:50;;;;;;;;;;;;;;;17.30;53.42;100973.53;5329786;26;1303;-52
2024/04/15 04:50:16;;;;;;;;;;;;;;;16.94;52.08;100973.47;5349923;26;1278;-51
2024/04/15 04:52:41;;;;;;;;;;;;;;;16.81;50.75;100973.97;5349428;26;1164;-47
2024/04/15 04:55:07;;;;;;;;;;;;;;;16.64;49.82;100969.53;5349112;26;1303;-51
2024/04/15 04:57:33;;;;;;;;;;;;;;;16.54;49.19;100964.81;5349293;26;1201;-49
2024/04/15 04:59:59;;;;;;;;;;;;;;;16.73;49.69;100962.44;5350059;26;2741;-51
2024/04/15 05:02:25;;;;;;;;;;;;;;;17.26;51.52;100969.69;5349463;26;1164;-48
2024/04/15 05:04:51;;;;;;;;;;;;;;;16.75;50.74;100970.41;5349337;26;1156;-51
2024/04/15 05:07:16;;;;;;;;;;;;;;;16.64;49.67;100968.72;5349270;26;1280;-49
2024/04/15 05:09:42;;;;;;;;;;;;;;;16.93;49.76;100967.16;5348917;26;1105;-51
2024/04/15 05:12:07;;;;;;;;;;;;;;;17.28;51.14;100962.81;5346431;26;1382;-50
2024/04/15 05:14:33;;;;;;;;;;;;;;;16.87;50.46;100968.25;5347691;26;1892;-50
2024/04/15 05:16:59;;;;;;;;;;;;;;;16.67;49.61;100959.94;5349214;26;1432;-52
2024/04/15 05:19:25;;;;;;;;;;;;;;;16.55;49.02;100957.41;5349101;26;1865;-51
2024/04/15 05:21:51;;;;;;;;;;;;;;;16.52;48.21;100969.78;5348869;26;1281;-51
2024/04/15 05:24:16;;;;;;;;;;;;;;;16.40;48.20;100961.75;5341431;26;1746;-53
2024/04/15 05:26:42;;;;;;;;;;;;;;;17.36;49.81;100953.22;5345786;26;1195;-50
2024/04/15 05:29:07;;;;;;;;;;;;;;;17.12;51.09;100949.34;5349047;26;1231;-53
2024/04/15 05:31:33;;;;;;;;;;;;;;;16.74;50.37;100950.31;5351514;26;3176;-52
2024/04/15 05:33:59;;;;;;;;;;;;;;;16.62;49.50;100952.50;5348277;26;1215;-51
2024/04/15 05:36:24;;;;;;;;;;;;;;;17.30;50.67;100948.81;5348725;26;1358;-51
2024/04/15 05:38:50;;;;;;;;;;;;;;;16.82;50.35;100950.94;5348848;26;1875;-49
2024/04/15 05:41:15;;;;;;;;;;;;;;;16.75;49.32;100948.44;5349685;26;1136;-48
2024/04/15 05:43:41;;;;;;;;;;;;;;;16.68;48.68;100951.41;5349563;26;1299;-52
2024/04/15 05:46:06;;;;;;;;;;;;;;;17.09;49.36;100943.28;5348914;26;1197;-52
2024/04/15 05:48:32;;;;;;;;;;;;;;;17.13;50.14;100946.31;5348668;26;1150;-51
2024/04/15 05:50:57;;;;;;;;;;;;;;;16.88;49.38;100947.09;5348835;26;1252;-46
2024/04/15 05:53:23;;;;;;;;;;;;;;;16.70;48.89;100951.97;5349403;26;1274;-52
2024/04/15 05:55:48;;;;;;;;;;;;;;;16.67;48.07;100951.69;5348469;26;1199;-51
2024/04/15 05:58:14;;;;;;;;;;;;;;;16.53;47.90;100954.13;5349646;26;1880;-53
2024/04/15 06:00:39;;;;;;;;;;;;;;;16.51;47.38;100964.53;5349300;26;1360;-51
2024/04/15 06:03:05;;;;;;;;;;;;;;;17.64;48.95;100958.44;5352303;26;1212;-49
2024/04/15 06:05:32;;;;;;;;;;;;;;;17.16;50.29;100956.78;5352534;26;1191;-52
2024/04/15 06:07:57;;;;;;;;;;;;;;;16.80;49.65;100956.66;5322048;26;1223;-48
2024/04/15 06:10:24;;;;;;;;;;;;;;;16.73;48.84;100958.84;5348246;26;1523;-51
2024/04/15 06:12:49;;;;;;;;;;;;;;;16.72;48.58;100947.03;5351956;26;1205;-51
2024/04/15 06:15:15;;;;;;;;;;;;;;;17.49;49.65;100945.50;5352090;26;1539;-50
2024/04/15 06:17:40;;;;;;;;;;;;;;;16.96;49.59;100949.31;5350784;26;1830;-51
2024/04/15 06:20:06;;;;;;;;;;;;;;;16.77;49.19;100940.72;5350532;26;1350;-53
2024/04/15 06:22:32;;;;;;;;;;;;;;;16.68;48.37;100948.69;5351766;26;1180;-51
2024/04/15 06:24:57;;;;;;;;;;;;;;;16.93;48.63;100939.72;5352141;26;1320;-50
2024/04/15 06:27:23;;;;;;;;;;;;;;;17.37;49.79;100943.84;5350282;26;1167;-51
2024/04/15 06:29:48;;;;;;;;;;;;;;;16.90;49.48;100942.16;5350917;26;1128;-51
2024/04/15 06:32:14;;;;;;;;;;;;;;;16.75;48.81;100943.75;5338050;26;1335;-51
2024/04/15 06:34:39;;;;;;;;;;;;;;;16.74;48.22;100939.34;5351242;26;1251;-52
2024/04/15 06:37:05;;;;;;;;;;;;;;;16.57;47.89;100933.28;5351020;26;1500;-51
2024/04/15 06:39:30;;;;;;;;;;;;;;;17.21;48.41;100929.31;5350530;26;1857;-49
2024/04/15 06:41:56;;;;;;;;;;;;;;;16.97;49.51;100923.53;5351483;26;1476;-54
2024/04/15 06:44:21;;;;;;;;;;;;;;;16.86;48.66;100927.31;5351149;26;1297;-55
2024/04/15 06:46:47;;;;;;;;;;;;;;;16.71;48.42;100919.84;5350746;26;1746;-53
2024/04/15 06:49:12;;;;;;;;;;;;;;;16.63;47.84;100925.88;5350582;26;1476;-51
2024/04/15 06:51:38;;;;;;;;;;;;;;;17.16;48.35;100923.78;5348361;26;1347;-55
2024/04/15 06:54:05;;;;;;;;;;;;;;;17.12;49.20;100919.94;5351527;26;1413;-51
2024/04/15 06:56:31;;;;;;;;;;;;;;;16.84;48.87;100918.50;5349779;26;1360;-51
2024/04/15 06:58:57;;;;;;;;;;;;;;;17.01;48.80;100918.28;5351033;26;1829;-52
2024/04/15 07:01:22;;;;;;;;;;;;;;;17.21;49.52;100915.56;5351485;26;1213;-51
2024/04/15 07:03:48;;;;;;;;;;;;;;;16.93;49.05;100906.75;5350341;26;1308;-50
2024/04/15 07:06:13;;;;;;;;;;;;;;;16.80;48.61;100903.66;5351586;26;1270;-52
2024/04/15 07:08:39;;;;;;;;;;;;;;;17.09;49.12;100906.75;5351621;26;1263;-54
2024/04/15 07:11:04;;;;;;;;;;;;;;;17.32;49.90;100902.66;5350425;26;1160;-52
2024/04/15 07:13:33;;;;;;;;;;;;;;;17.00;49.43;100902.88;5351549;26;1291;-53
2024/04/15 07:15:59;;;;;;;;;;;;;;;16.87;48.83;100906.97;5350963;26;1343;-55
2024/04/15 07:18:24;;;;;;;;;;;;;;;16.72;48.28;100894.88;5351234;26;1846;-54
2024/04/15 07:20:50;;;;;;;;;;;;;;;16.72;47.92;100894.06;5350712;26;1506;-54
2024/04/15 07:23:15;;;;;;;;;;;;;;;16.70;47.69;100891.56;5351124;26;1163;-53
2024/04/15 07:25:41;;;;;;;;;;;;;;;17.73;48.58;100896.28;5351161;26;1322;-55
2024/04/15 07:28:06;;;;;;;;;;;;;;;17.04;49.48;100896.59;5349355;26;1467;-51
2024/04/15 07:30:32;;;;;;;;;;;;;;;16.84;48.86;100885.56;5349142;26;1639;-54
2024/04/15 07:32:59;;;;;;;;;;;;;;;16.76;48.40;100890.50;5350706;26;1290;-53
2024/04/15 07:35:30;;;;;;;;;;;;;;;16.68;48.17;100884.72;5350051;26;1293;-51
2024/04/15 07:37:56;;;;;;;;;;;;;;;16.71;47.64;100889.66;5351212;26;1834;-53
2024/04/15 07:40:21;;;;;;;;;;;;;;;16.55;47.64;100886.88;5344326;26;1380;-53
2024/04/15 07:42:47;;;;;;;;;;;;;;;17.43;48.44;100875.97;5347849;26;1504;-54
2024/04/15 07:45:12;;;;;;;;;;;;;;;17.18;49.32;100880.41;5343819;26;1662;-55
2024/04/15 07:47:38;;;;;;;;;;;;;;;16.92;49.10;100882.28;5350101;26;1397;-56
2024/04/15 07:50:03;;;;;;;;;;;;;;;16.77;48.46;100875.66;5350465;26;1204;-52
2024/04/15 07:52:29;;;;;;;;;;;;;;;16.74;48.11;100869.88;5341182;26;1352;-52
2024/04/15 07:54:54;;;;;;;;;;;;;;;16.72;47.72;100872.91;5345049;26;1589;-55
2024/04/15 07:57:20;;;;;;;;;;;;;;;16.80;47.95;100874.28;5343329;26;1678;-52
2024/04/15 07:59:46;;;;;;;;;;;;;;;17.42;49.15;100866.91;5329505;26;1826;-53
2024/04/15 08:02:12;;;;;;;;;;;;;;;17.04;49.34;100871.03;5347781;26;1277;-54
2024/04/15 08:04:37;;;;;;;;;;;;;;;16.93;48.56;100875.72;5349037;26;1668;-56
2024/04/15 08:07:03;;;;;;;;;;;;;;;17.01;48.74;100863.34;5350953;26;1160;-53
2024/04/15 08:09:29;;;;;;;;;;;;;;;17.22;49.38;100864.16;5350772;26;1380;-54
2024/04/15 08:11:54;;;;;;;;;;;;;;;16.95;49.01;100862.53;5349212;26;1669;-55
2024/04/15 08:14:20;;;;;;;;;;;;;;;16.93;48.46;100859.25;5349744;26;1769;-56
2024/04/15 08:16:46;;;;;;;;;;;;;;;16.71;48.42;100865.75;5351284;26;1171;-54
2024/04/15 08:19:11;;;;;;;;;;;;;;;16.73;47.90;100858.09;5350492;26;1826;-55
2024/04/15 08:21:37;;;;;;;;;;;;;;;16.64;47.83;100854.22;5349575;26;1298;-56
2024/04/15 08:24:03;;;;;;;;;;;;;;;16.70;47.38;100846.81;5350084;26;1177;-55
2024/04/15 08:26:28;;;;;;;;;;;;;;;16.71;48.01;100857.53;5350506;26;1168;-57
2024/04/15 08:28:53;;;;;;;;;;;;;;;17.21;48.95;100852.34;5346803;26;1256;-56
2024/04/15 08:31:19;;;;;;;;;;;;;;;16.95;48.72;100846.03;5347599;26;1772;-57
2024/04/15 08:33:44;;;;;;;;;;;;;;;16.81;48.47;100858.63;5342654;26;1771;-56
2024/04/15 08:36:12;;;;;;;;;;;;;;;16.68;48.11;100838.84;5350114;26;1112;-59
2024/04/15 08:38:40;;;;;;;;;;;;;;;16.68;47.89;100838.84;5348459;26;1863;-56
2024/04/15 08:41:05;;;;;;;;;;;;;;;16.71;47.47;100837.47;5347640;26;1793;-55
2024/04/15 08:43:31;;;;;;;;;;;;;;;17.09;47.76;100827.91;5308588;26;1371;-55
2024/04/15 08:45:58;;;;;;;;;;;;;;;17.32;49.28;100828.44;5349372;26;1309;-55
2024/04/15 08:48:24;;;;;;;;;;;;;;;17.01;49.13;100831.22;5346624;26;1380;-54
2024/04/15 08:50:54;;;;;;;;;;;;;;;16.94;48.63;100841.63;5346865;26;1719;-56
2024/04/15 08:53:20;;;;;;;;;;;;;;;16.86;48.26;100833.94;5345955;26;1673;-51
2024/04/15 08:55:46;;;;;;;;;;;;;;;17.08;48.28;100831.75;5348429;26;1155;-55
2024/04/15 08:58:11;;;;;;;;;;;;;;;17.51;49.36;100822.34;5349476;26;1826;-55
2024/04/15 09:00:37;;;;;;;;;;;;;;;17.13;49.48;100821.88;5349488;26;976;-54
2024/04/15 09:03:02;;;;;;;;;;;;;;;17.06;48.78;100827.63;5314894;26;1157;-53
2024/04/15 09:05:28;;;;;;;;;;;;;;;16.92;48.53;100819.94;5319229;26;1216;-54
2024/04/15 09:07:53;;;;;;;;;;;;;;;16.99;48.48;100827.91;5349333;26;1243;-54
2024/04/15 09:10:19;;;;;;;;;;;;;;;17.38;49.27;100823.75;5349184;26;1168;-55
2024/04/15 09:12:45;;;;;;;;;;;;;;;17.16;49.07;100813.88;5331958;26;2858;-55
2024/04/15 09:15:10;;;;;;;;;;;;;;;17.00;48.83;100813.09;5348591;26;1547;-53
2024/04/15 09:17:36;;;;;;;;;;;;;;;16.85;48.34;100808.38;5349282;26;1511;-56
2024/04/15 09:20:02;;;;;;;;;;;;;;;16.80;48.36;100802.06;5349503;26;1852;-56
2024/04/15 09:22:28;;;;;;;;;;;;;;;16.85;47.84;100804.81;5349026;26;1180;-56
2024/04/15 09:24:53;;;;;;;;;;;;;;;17.20;48.28;100805.91;5349607;26;1008;-55
2024/04/15 09:27:21;;;;;;;;;;;;;;;17.30;48.84;100810.56;5349871;26;1231;-52
2024/04/15 09:29:47;;;;;;;;;;;;;;;17.03;48.66;100800.72;5349843;26;1275;-56
2024/04/15 09:32:13;;;;;;;;;;;;;;;16.91;48.53;100798.25;5349433;26;1283;-53
2024/04/15 09:34:39;;;;;;;;;;;;;;;16.86;48.14;100785.31;5351869;26;1309;-55
2024/04/15 09:37:04;;;;;;;;;;;;;;;16.88;47.92;100788.63;5350893;26;1322;-53
2024/04/15 09:39:31;;;;;;;;;;;;;;;16.81;47.55;100789.97;5350882;26;1860;-54
2024/04/15 09:41:57;;;;;;;;;;;;;;;16.85;47.70;100785.59;5322855;26;1287;-53
2024/04/15 09:44:22;;;;;;;;;;;;;;;16.75;47.65;100781.75;5321999;26;1129;-55
2024/04/15 09:46:48;;;;;;;;;;;;;;;16.75;47.42;100772.69;5352810;26;1262;-55
2024/04/15 09:49:14;;;;;;;;;;;;;;;16.72;47.42;100771.31;5321886;26;1200;-56
2024/04/15 09:51:40;;;;;;;;;;;;;;;16.70;47.13;100775.41;5322391;26;1165;-56
2024/04/15 09:54:08;;;;;;;;;;;;;;;16.69;47.05;100768.28;5351737;26;1164;-52
2024/04/15 09:56:33;;;;;;;;;;;;;;;16.60;47.23;100770.75;5322016;26;1184;-53
2024/04/15 09:58:59;;;;;;;;;;;;;;;16.72;46.97;100770.50;5322022;26;1826;-56
2024/04/15 10:01:33;;;;;;;;;;;;;;;16.61;47.17;100769.66;5321678;26;1041;-57
2024/04/15 10:04:04;;;;;;;;;;;;;;;17.18;48.26;100766.88;5351710;26;1318;-58
2024/04/15 10:06:42;;;;;;;;;;;;;;;16.83;48.65;100752.91;5321684;26;1313;-54
2024/04/15 10:09:07;;;;;;;;;;;;;;;16.75;48.20;100750.72;5332905;26;1527;-56
2024/04/15 10:11:33;;;;;;;;;;;;;;;16.71;47.93;100753.19;5352473;26;1241;-55
2024/04/15 10:13:58;;;;;;;;;;;;;;;16.74;47.69;100749.88;5321283;26;1167;-54
2024/04/15 10:16:25;;;;;;;;;;;;;;;16.68;47.50;100751.00;5352014;26;1268;-53
2024/04/15 10:18:54;;;;;;;;;;;;;;;16.70;47.41;100748.78;5352457;26;1821;-51
2024/04/15 10:21:19;;;;;;;;;;;;;;;16.64;47.33;100743.59;5322041;26;1274;-55
2024/04/15 10:23:45;;;;;;;;;;;;;;;17.62;47.77;100735.97;5352276;26;1207;-55
2024/04/15 10:26:10;;;;;;;;;;;;;;;16.99;48.82;100731.75;5347952;26;1025;-58
2024/04/15 10:28:36;;;;;;;;;;;;;;;16.91;48.43;100735.91;5352248;26;1239;-56
2024/04/15 10:31:01;;;;;;;;;;;;;;;16.94;48.13;100740.00;5321788;26;1332;-56
2024/04/15 10:33:27;;;;;;;;;;;;;;;16.86;48.00;100735.06;5352892;26;1452;-52
2024/04/15 10:35:53;;;;;;;;;;;;;;;16.80;47.73;100730.66;5351205;26;1192;-55
2024/04/15 10:38:18;;;;;;;;;;;;;;;16.69;47.65;100733.44;5370109;26;1859;-55
2024/04/15 10:40:44;;;;;;;;;;;;;;;16.73;47.45;100712.56;5350398;26;1224;-55
2024/04/15 10:43:17;;;;;;;;;;;;;;;16.68;47.52;100722.72;5351294;26;1112;-53
2024/04/15 10:45:42;;;;;;;;;;;;;;;17.45;48.03;100719.84;5329068;26;1231;-59
2024/04/15 10:48:08;;;;;;;;;;;;;;;17.19;48.77;100711.66;5351735;26;1128;-53
2024/04/15 10:50:34;;;;;;;;;;;;;;;16.97;48.62;100709.25;5351644;26;1085;-51
2024/04/15 10:52:59;;;;;;;;;;;;;;;16.91;48.36;100704.84;5352501;26;1124;-53
2024/04/15 10:55:25;;;;;;;;;;;;;;;16.88;47.99;100697.16;5351820;26;1240;-53
2024/04/15 10:57:51;;;;;;;;;;;;;;;16.82;47.94;100693.59;5351052;26;1876;-53
2024/04/15 11:00:20;;;;;;;;;;;;;;;16.77;47.79;100699.09;5351730;26;1168;-54
2024/04/15 11:02:52;;;;;;;;;;;;;;;16.82;47.48;100676.31;5341278;26;1258;-54
2024/04/15 11:05:19;;;;;;;;;;;;;;;16.82;47.06;100677.13;5351882;26;1136;-55
2024/04/15 11:07:46;;;;;;;;;;;;;;;16.77;47.26;100675.22;5349869;26;1535;-57
2024/04/15 11:10:12;;;;;;;;;;;;;;;16.83;46.97;100677.91;5338018;26;1192;-56
2024/04/15 11:12:38;;;;;;;;;;;;;;;16.72;47.16;100669.72;5351242;26;1383;-55
2024/04/15 11:15:04;;;;;;;;;;;;;;;16.77;46.99;100666.97;5351271;26;1219;-57
2024/04/15 11:17:32;;;;;;;;;;;;;;;16.68;47.10;100676.84;5350641;26;1266;-58
2024/04/15 11:20:05;;;;;;;;;;;;;;;16.72;47.00;100657.91;5351288;26;1832;-58
2024/04/15 11:22:30;;;;;;;;;;;;;;;16.64;47.08;100662.03;5351411;26;1208;-59
2024/04/15 11:24:56;;;;;;;;;;;;;;;16.65;46.95;100660.94;5350693;26;1628;-57
2024/04/15 11:27:21;;;;;;;;;;;;;;;16.72;47.10;100653.25;5337157;26;1676;-56
2024/04/15 11:29:47;;;;;;;;;;;;;;;17.61;47.94;100651.84;5350994;26;1330;-57
2024/04/15 11:32:13;;;;;;;;;;;;;;;17.12;48.56;100647.13;5351022;26;1475;-56
2024/04/15 11:34:38;;;;;;;;;;;;;;;17.04;48.15;100643.84;5351872;26;1402;-57
2024/04/15 11:37:04;;;;;;;;;;;;;;;16.95;47.93;100634.53;5351002;26;1505;-59
2024/04/15 11:39:29;;;;;;;;;;;;;;;16.95;47.65;100637.28;5350899;26;1829;-51
2024/04/15 11:41:56;;;;;;;;;;;;;;;16.83;47.57;100623.84;5357718;26;1402;-52
2024/04/15 11:44:22;;;;;;;;;;;;;;;16.83;47.21;100614.75;5319854;26;1470;-55
2024/04/15 11:46:47;;;;;;;;;;;;;;;17.77;47.95;100620.41;5319242;26;1795;-55
2024/04/15 11:49:13;;;;;;;;;;;;;;;17.22;48.64;100612.19;5350584;26;1279;-57
2024/04/15 11:51:41;;;;;;;;;;;;;;;17.00;48.58;100609.81;5350905;26;1387;-57
2024/04/15 11:54:07;;;;;;;;;;;;;;;17.00;48.18;100603.47;5350680;26;1225;-56
2024/04/15 11:56:32;;;;;;;;;;;;;;;16.89;48.01;100598.03;5349643;26;1370;-58
2024/04/15 11:58:58;;;;;;;;;;;;;;;16.86;47.78;100595.81;5350388;26;1951;-56
2024/04/15 12:01:23;;;;;;;;;;;;;;;16.94;47.40;100591.69;5318467;26;1477;-56
2024/04/15 12:03:49;;;;;;;;;;;;;;;16.87;47.31;100582.91;5350991;26;1489;-57
2024/04/15 12:06:14;;;;;;;;;;;;;;;16.85;47.21;100583.19;5297495;26;1359;-58
2024/04/15 12:08:40;;;;;;;;;;;;;;;16.80;47.24;100571.38;5350612;26;1247;-58
2024/04/15 12:11:10;;;;;;;;;;;;;;;16.74;47.07;100574.16;5350814;26;1524;-58
2024/04/15 12:13:36;;;;;;;;;;;;;;;16.82;47.06;100574.69;5350472;26;1177;-58
2024/04/15 12:16:01;;;;;;;;;;;;;;;16.80;47.02;100560.41;5350490;26;1223;-58
2024/04/15 12:18:27;;;;;;;;;;;;;;;16.74;46.87;100552.19;5350843;26;1826;-58
2024/04/15 12:20:52;;;;;;;;;;;;;;;16.71;46.88;100555.50;5350149;26;1398;-56
2024/04/15 12:23:18;;;;;;;;;;;;;;;16.70;46.86;100550.28;5350763;26;1354;-53
2024/04/15 12:25:44;;;;;;;;;;;;;;;17.59;47.39;100547.66;5350427;26;1275;-57
2024/04/15 12:28:09;;;;;;;;;;;;;;;17.13;48.35;100538.88;5350786;26;1361;-57
2024/04/15 12:30:35;;;;;;;;;;;;;;;16.96;48.22;100544.72;5349901;26;1169;-57
2024/04/15 12:33:01;;;;;;;;;;;;;;;16.86;48.19;100537.34;5351038;26;1251;-55
2024/04/15 12:35:26;;;;;;;;;;;;;;;16.89;47.79;100531.31;5350453;26;1410;-56
2024/04/15 12:37:52;;;;;;;;;;;;;;;16.86;47.49;100531.84;5350079;26;1859;-57
2024/04/15 12:40:17;;;;;;;;;;;;;;;16.80;47.52;100527.47;5349960;26;1262;-56